Gill, Massachusetts
Current Conditions -  °F | °C
As of 7:52 AM on Thursday 23 Oct 2014 (Local Time) from KORE Reporting Station
Heavy Rain Heavy Rain  
Wind Chill: 44°   Ceiling: 4700
Heat Index: 48°   Visibility: 5mi
Dew Point: 46°   Wind: 9mph
Humidity: 93%   Direction: 350°N
Pressure: 29.76"   Gusts: NA
Location:  42.6787°N, 72.4874°W
Report Text: KORE 231152Z AUTO 35008KT 5SM +RA BR OVC047 09/08 A2976 RMK AO2 SLP079 P0021 60122 70182 T00890078 10089 20083 58006
Loading
Personal Weather Stations






























Interactive Weather Map
Tropical Storm Tracking
New forecast layout! Learn more

10-Day Weather Forecast

Advertisements
Track Severe Weather on mobile